sensor_id;sensor_type;location;lat;lon;timestamp;temperature;humidity
25410;DHT22;13339;50.840;4.346;2022-08-21T00:01:20;20.70;99.90
25410;DHT22;13339;50.840;4.346;2022-08-21T00:03:46;20.60;99.90
25410;DHT22;13339;50.840;4.346;2022-08-21T00:06:12;20.60;99.90
25410;DHT22;13339;50.840;4.346;2022-08-21T00:08:38;20.60;99.90
25410;DHT22;13339;50.840;4.346;2022-08-21T00:11:04;20.50;99.90
25410;DHT22;13339;50.840;4.346;2022-08-21T00:13:31;20.40;99.90
25410;DHT22;13339;50.840;4.346;2022-08-21T00:15:58;20.40;99.90
25410;DHT22;13339;50.840;4.346;2022-08-21T00:18:24;20.40;99.90
25410;DHT22;13339;50.840;4.346;2022-08-21T00:20:50;20.50;99.90
25410;DHT22;13339;50.840;4.346;2022-08-21T00:23:16;20.40;99.90
25410;DHT22;13339;50.840;4.346;2022-08-21T00:25:43;20.50;99.90
25410;DHT22;13339;50.840;4.346;2022-08-21T00:28:10;20.30;99.90
25410;DHT22;13339;50.840;4.346;2022-08-21T00:30:36;20.40;99.90
25410;DHT22;13339;50.840;4.346;2022-08-21T00:33:03;20.30;99.90
25410;DHT22;13339;50.840;4.346;2022-08-21T00:35:33;20.20;99.90
25410;DHT22;13339;50.840;4.346;2022-08-21T00:37:59;20.20;99.90
25410;DHT22;13339;50.840;4.346;2022-08-21T00:40:35;20.10;99.90
25410;DHT22;13339;50.840;4.346;2022-08-21T00:43:03;20.10;99.90
25410;DHT22;13339;50.840;4.346;2022-08-21T00:45:29;20.10;99.90
25410;DHT22;13339;50.840;4.346;2022-08-21T00:47:55;20.00;99.90
25410;DHT22;13339;50.840;4.346;2022-08-21T00:50:22;19.90;99.90
25410;DHT22;13339;50.840;4.346;2022-08-21T00:52:51;19.80;99.90
25410;DHT22;13339;50.840;4.346;2022-08-21T00:55:17;19.80;99.90
25410;DHT22;13339;50.840;4.346;2022-08-21T00:57:47;19.80;99.90
25410;DHT22;13339;50.840;4.346;2022-08-21T01:00:17;19.80;99.90
25410;DHT22;13339;50.840;4.346;2022-08-21T01:02:44;19.80;99.90
25410;DHT22;13339;50.840;4.346;2022-08-21T01:05:10;19.80;99.90
25410;DHT22;13339;50.840;4.346;2022-08-21T01:07:36;19.80;99.90
25410;DHT22;13339;50.840;4.346;2022-08-21T01:10:04;19.80;99.90
25410;DHT22;13339;50.840;4.346;2022-08-21T01:12:30;19.80;99.90
25410;DHT22;13339;50.840;4.346;2022-08-21T01:14:55;19.80;99.90
25410;DHT22;13339;50.840;4.346;2022-08-21T01:17:22;19.70;99.90
25410;DHT22;13339;50.840;4.346;2022-08-21T01:19:47;19.70;99.90
25410;DHT22;13339;50.840;4.346;2022-08-21T01:22:13;19.70;99.90
25410;DHT22;13339;50.840;4.346;2022-08-21T01:24:39;19.70;99.90
25410;DHT22;13339;50.840;4.346;2022-08-21T01:27:05;19.70;99.90
25410;DHT22;13339;50.840;4.346;2022-08-21T01:29:48;19.70;99.90
25410;DHT22;13339;50.840;4.346;2022-08-21T01:32:17;19.70;99.90
25410;DHT22;13339;50.840;4.346;2022-08-21T01:34:46;19.60;99.90
25410;DHT22;13339;50.840;4.346;2022-08-21T01:37:12;19.60;99.90
25410;DHT22;13339;50.840;4.346;2022-08-21T01:39:39;19.50;99.90
25410;DHT22;13339;50.840;4.346;2022-08-21T01:42:05;19.50;99.90
25410;DHT22;13339;50.840;4.346;2022-08-21T01:44:31;19.50;99.90
25410;DHT22;13339;50.840;4.346;2022-08-21T01:46:59;19.50;99.90
25410;DHT22;13339;50.840;4.346;2022-08-21T01:49:25;19.50;99.90
25410;DHT22;13339;50.840;4.346;2022-08-21T01:51:51;19.50;99.90
25410;DHT22;13339;50.840;4.346;2022-08-21T01:54:17;19.50;99.90
25410;DHT22;13339;50.840;4.346;2022-08-21T01:56:46;19.50;99.90
25410;DHT22;13339;50.840;4.346;2022-08-21T01:59:12;19.50;99.90
25410;DHT22;13339;50.840;4.346;2022-08-21T02:01:38;19.50;99.90
25410;DHT22;13339;50.840;4.346;2022-08-21T02:04:08;19.40;99.90
25410;DHT22;13339;50.840;4.346;2022-08-21T02:06:35;19.40;99.90
25410;DHT22;13339;50.840;4.346;2022-08-21T02:09:03;19.30;99.90
25410;DHT22;13339;50.840;4.346;2022-08-21T02:11:30;19.30;99.90
25410;DHT22;13339;50.840;4.346;2022-08-21T02:13:56;19.30;99.90
25410;DHT22;13339;50.840;4.346;2022-08-21T02:16:22;19.30;99.90
25410;DHT22;13339;50.840;4.346;2022-08-21T02:18:48;19.40;99.90
25410;DHT22;13339;50.840;4.346;2022-08-21T02:21:13;19.30;99.90
25410;DHT22;13339;50.840;4.346;2022-08-21T02:23:39;19.30;99.90
25410;DHT22;13339;50.840;4.346;2022-08-21T02:26:06;19.20;99.90
25410;DHT22;13339;50.840;4.346;2022-08-21T02:28:32;19.30;99.90
25410;DHT22;13339;50.840;4.346;2022-08-21T02:30:58;19.30;99.90
25410;DHT22;13339;50.840;4.346;2022-08-21T02:33:25;19.30;99.90
25410;DHT22;13339;50.840;4.346;2022-08-21T02:35:51;19.20;99.90
25410;DHT22;13339;50.840;4.346;2022-08-21T02:38:24;19.10;99.90
25410;DHT22;13339;50.840;4.346;2022-08-21T02:40:51;19.20;99.90
25410;DHT22;13339;50.840;4.346;2022-08-21T02:43:19;19.10;99.90
25410;DHT22;13339;50.840;4.346;2022-08-21T02:45:45;19.00;99.90
25410;DHT22;13339;50.840;4.346;2022-08-21T02:48:17;19.00;99.90
25410;DHT22;13339;50.840;4.346;2022-08-21T02:50:48;19.10;99.90
25410;DHT22;13339;50.840;4.346;2022-08-21T02:53:15;19.10;99.90
25410;DHT22;13339;50.840;4.346;2022-08-21T02:55:46;19.10;99.90
25410;DHT22;13339;50.840;4.346;2022-08-21T02:58:14;19.10;99.90
25410;DHT22;13339;50.840;4.346;2022-08-21T03:00:40;19.10;99.90
25410;DHT22;13339;50.840;4.346;2022-08-21T03:03:06;19.10;99.90
25410;DHT22;13339;50.840;4.346;2022-08-21T03:05:34;19.10;99.90
25410;DHT22;13339;50.840;4.346;2022-08-21T03:08:02;19.10;99.90
25410;DHT22;13339;50.840;4.346;2022-08-21T03:10:29;19.10;99.90
25410;DHT22;13339;50.840;4.346;2022-08-21T03:12:56;19.10;99.90
25410;DHT22;13339;50.840;4.346;2022-08-21T03:15:23;19.00;99.90
25410;DHT22;13339;50.840;4.346;2022-08-21T03:17:50;19.00;99.90
25410;DHT22;13339;50.840;4.346;2022-08-21T03:20:19;18.90;99.90
25410;DHT22;13339;50.840;4.346;2022-08-21T03:22:47;18.90;99.90
25410;DHT22;13339;50.840;4.346;2022-08-21T03:25:12;18.90;99.90
25410;DHT22;13339;50.840;4.346;2022-08-21T03:27:38;18.80;99.90
25410;DHT22;13339;50.840;4.346;2022-08-21T03:30:06;18.80;99.90
25410;DHT22;13339;50.840;4.346;2022-08-21T03:32:32;18.80;99.90
25410;DHT22;13339;50.840;4.346;2022-08-21T03:34:58;18.80;99.90
25410;DHT22;13339;50.840;4.346;2022-08-21T03:37:25;18.80;99.90
25410;DHT22;13339;50.840;4.346;2022-08-21T03:39:51;18.70;99.90
25410;DHT22;13339;50.840;4.346;2022-08-21T03:42:16;18.70;99.90
25410;DHT22;13339;50.840;4.346;2022-08-21T03:44:43;18.80;99.90
25410;DHT22;13339;50.840;4.346;2022-08-21T03:47:09;18.70;99.90
25410;DHT22;13339;50.840;4.346;2022-08-21T03:49:35;18.70;99.90
25410;DHT22;13339;50.840;4.346;2022-08-21T03:52:01;18.70;99.90
25410;DHT22;13339;50.840;4.346;2022-08-21T03:54:27;18.60;99.90
25410;DHT22;13339;50.840;4.346;2022-08-21T03:56:53;18.60;99.90
25410;DHT22;13339;50.840;4.346;2022-08-21T03:59:18;18.70;99.90
25410;DHT22;13339;50.840;4.346;2022-08-21T04:01:59;18.60;99.90
25410;DHT22;13339;50.840;4.346;2022-08-21T04:04:27;18.60;99.90
25410;DHT22;13339;50.840;4.346;2022-08-21T04:06:52;18.60;99.90
25410;DHT22;13339;50.840;4.346;2022-08-21T04:09:18;18.60;99.90
25410;DHT22;13339;50.840;4.346;2022-08-21T04:11:45;18.70;99.90
25410;DHT22;13339;50.840;4.346;2022-08-21T04:14:12;18.60;99.90
25410;DHT22;13339;50.840;4.346;2022-08-21T04:16:39;18.60;99.90
25410;DHT22;13339;50.840;4.346;2022-08-21T04:19:06;18.60;99.90
25410;DHT22;13339;50.840;4.346;2022-08-21T04:21:32;18.60;99.90
25410;DHT22;13339;50.840;4.346;2022-08-21T04:23:57;18.70;99.90
25410;DHT22;13339;50.840;4.346;2022-08-21T04:26:24;18.60;99.90
25410;DHT22;13339;50.840;4.346;2022-08-21T04:28:51;18.60;99.90
25410;DHT22;13339;50.840;4.346;2022-08-21T04:31:18;18.60;99.90
25410;DHT22;13339;50.840;4.346;2022-08-21T04:33:43;18.60;99.90
25410;DHT22;13339;50.840;4.346;2022-08-21T04:36:10;18.60;99.90
25410;DHT22;13339;50.840;4.346;2022-08-21T04:38:36;18.50;99.90
25410;DHT22;13339;50.840;4.346;2022-08-21T04:41:02;18.50;99.90
25410;DHT22;13339;50.840;4.346;2022-08-21T04:43:28;18.40;99.90
25410;DHT22;13339;50.840;4.346;2022-08-21T04:45:54;18.40;99.90
25410;DHT22;13339;50.840;4.346;2022-08-21T04:48:21;18.40;99.90
25410;DHT22;13339;50.840;4.346;2022-08-21T04:53:22;18.30;99.90
25410;DHT22;13339;50.840;4.346;2022-08-21T04:55:49;18.30;99.90
25410;DHT22;13339;50.840;4.346;2022-08-21T04:58:19;18.30;99.90
25410;DHT22;13339;50.840;4.346;2022-08-21T05:00:47;18.20;99.90
25410;DHT22;13339;50.840;4.346;2022-08-21T05:03:14;18.10;99.90
25410;DHT22;13339;50.840;4.346;2022-08-21T05:05:41;17.90;99.90
25410;DHT22;13339;50.840;4.346;2022-08-21T05:08:09;17.80;99.90
25410;DHT22;13339;50.840;4.346;2022-08-21T05:10:37;17.70;99.90
25410;DHT22;13339;50.840;4.346;2022-08-21T05:13:03;17.60;99.90
25410;DHT22;13339;50.840;4.346;2022-08-21T05:15:30;17.50;99.90
25410;DHT22;13339;50.840;4.346;2022-08-21T05:17:57;17.50;99.90
25410;DHT22;13339;50.840;4.346;2022-08-21T05:20:22;17.50;99.90
25410;DHT22;13339;50.840;4.346;2022-08-21T05:22:48;17.50;99.90
25410;DHT22;13339;50.840;4.346;2022-08-21T05:25:14;17.60;99.90
25410;DHT22;13339;50.840;4.346;2022-08-21T05:27:40;17.60;99.90
25410;DHT22;13339;50.840;4.346;2022-08-21T05:30:07;17.50;99.90
25410;DHT22;13339;50.840;4.346;2022-08-21T05:32:34;17.50;99.90
25410;DHT22;13339;50.840;4.346;2022-08-21T05:35:00;17.60;99.90
25410;DHT22;13339;50.840;4.346;2022-08-21T05:37:26;17.60;99.90
25410;DHT22;13339;50.840;4.346;2022-08-21T05:39:51;17.60;99.90
25410;DHT22;13339;50.840;4.346;2022-08-21T05:42:17;17.70;99.90
25410;DHT22;13339;50.840;4.346;2022-08-21T05:44:43;17.70;99.90
25410;DHT22;13339;50.840;4.346;2022-08-21T05:47:09;17.80;99.90
25410;DHT22;13339;50.840;4.346;2022-08-21T05:49:36;17.80;99.90
25410;DHT22;13339;50.840;4.346;2022-08-21T05:52:03;17.80;99.90
25410;DHT22;13339;50.840;4.346;2022-08-21T05:54:29;17.80;99.90
25410;DHT22;13339;50.840;4.346;2022-08-21T05:56:55;17.80;99.90
25410;DHT22;13339;50.840;4.346;2022-08-21T05:59:21;17.80;99.90
25410;DHT22;13339;50.840;4.346;2022-08-21T06:01:46;17.90;99.90
25410;DHT22;13339;50.840;4.346;2022-08-21T06:04:12;17.90;99.90
25410;DHT22;13339;50.840;4.346;2022-08-21T06:06:38;17.90;99.90
25410;DHT22;13339;50.840;4.346;2022-08-21T06:09:04;17.80;99.90
25410;DHT22;13339;50.840;4.346;2022-08-21T06:11:31;17.80;99.90
25410;DHT22;13339;50.840;4.346;2022-08-21T06:13:57;17.70;99.90
25410;DHT22;13339;50.840;4.346;2022-08-21T06:16:23;17.60;99.90
25410;DHT22;13339;50.840;4.346;2022-08-21T06:18:49;17.60;99.90
25410;DHT22;13339;50.840;4.346;2022-08-21T06:21:15;17.60;99.90
25410;DHT22;13339;50.840;4.346;2022-08-21T06:23:41;17.60;99.90
25410;DHT22;13339;50.840;4.346;2022-08-21T06:26:10;17.80;99.90
25410;DHT22;13339;50.840;4.346;2022-08-21T06:28:36;17.70;99.90
25410;DHT22;13339;50.840;4.346;2022-08-21T06:31:28;17.80;99.90
25410;DHT22;13339;50.840;4.346;2022-08-21T06:33:54;17.80;99.90
25410;DHT22;13339;50.840;4.346;2022-08-21T06:36:20;17.90;99.90
25410;DHT22;13339;50.840;4.346;2022-08-21T06:38:46;18.00;99.90
25410;DHT22;13339;50.840;4.346;2022-08-21T06:41:13;18.10;99.90
25410;DHT22;13339;50.840;4.346;2022-08-21T06:43:39;18.20;99.90
25410;DHT22;13339;50.840;4.346;2022-08-21T06:46:04;18.20;99.90
25410;DHT22;13339;50.840;4.346;2022-08-21T06:48:30;18.20;99.90
25410;DHT22;13339;50.840;4.346;2022-08-21T06:50:59;18.10;99.90
25410;DHT22;13339;50.840;4.346;2022-08-21T06:53:25;18.30;99.90
25410;DHT22;13339;50.840;4.346;2022-08-21T06:55:51;18.40;99.90
25410;DHT22;13339;50.840;4.346;2022-08-21T06:58:17;18.60;99.90
25410;DHT22;13339;50.840;4.346;2022-08-21T07:00:46;18.70;99.90
25410;DHT22;13339;50.840;4.346;2022-08-21T07:03:33;18.70;99.90
25410;DHT22;13339;50.840;4.346;2022-08-21T07:05:59;18.80;99.90
25410;DHT22;13339;50.840;4.346;2022-08-21T07:08:26;18.90;99.90
25410;DHT22;13339;50.840;4.346;2022-08-21T07:10:53;19.00;99.90
25410;DHT22;13339;50.840;4.346;2022-08-21T07:13:19;19.10;99.90
25410;DHT22;13339;50.840;4.346;2022-08-21T07:15:44;19.20;99.90
25410;DHT22;13339;50.840;4.346;2022-08-21T07:18:11;19.30;99.90
25410;DHT22;13339;50.840;4.346;2022-08-21T07:20:37;19.30;99.90
25410;DHT22;13339;50.840;4.346;2022-08-21T07:23:09;19.30;99.90
25410;DHT22;13339;50.840;4.346;2022-08-21T07:25:36;19.40;99.90
25410;DHT22;13339;50.840;4.346;2022-08-21T07:28:02;19.40;99.90
25410;DHT22;13339;50.840;4.346;2022-08-21T07:30:27;19.50;99.90
25410;DHT22;13339;50.840;4.346;2022-08-21T07:32:53;19.60;99.90
25410;DHT22;13339;50.840;4.346;2022-08-21T07:35:22;19.60;99.90
25410;DHT22;13339;50.840;4.346;2022-08-21T07:37:49;19.70;99.90
25410;DHT22;13339;50.840;4.346;2022-08-21T07:40:15;19.70;99.90
25410;DHT22;13339;50.840;4.346;2022-08-21T07:42:42;19.90;99.90
25410;DHT22;13339;50.840;4.346;2022-08-21T07:45:08;19.90;99.90
25410;DHT22;13339;50.840;4.346;2022-08-21T07:47:34;20.10;99.90
25410;DHT22;13339;50.840;4.346;2022-08-21T07:50:00;20.10;99.90
25410;DHT22;13339;50.840;4.346;2022-08-21T07:52:26;20.30;99.90
25410;DHT22;13339;50.840;4.346;2022-08-21T07:54:51;20.40;99.90
25410;DHT22;13339;50.840;4.346;2022-08-21T07:57:17;20.60;99.90
25410;DHT22;13339;50.840;4.346;2022-08-21T07:59:43;20.70;99.90
25410;DHT22;13339;50.840;4.346;2022-08-21T08:02:08;20.80;99.90
25410;DHT22;13339;50.840;4.346;2022-08-21T08:04:34;20.80;99.90
25410;DHT22;13339;50.840;4.346;2022-08-21T08:07:00;20.90;99.90
25410;DHT22;13339;50.840;4.346;2022-08-21T08:09:25;21.00;99.90
25410;DHT22;13339;50.840;4.346;2022-08-21T08:11:51;21.20;99.90
25410;DHT22;13339;50.840;4.346;2022-08-21T08:14:16;21.30;99.90
25410;DHT22;13339;50.840;4.346;2022-08-21T08:16:42;21.40;99.90
25410;DHT22;13339;50.840;4.346;2022-08-21T08:19:08;21.50;99.90
25410;DHT22;13339;50.840;4.346;2022-08-21T08:21:34;21.50;99.90
25410;DHT22;13339;50.840;4.346;2022-08-21T08:24:00;21.40;99.90
25410;DHT22;13339;50.840;4.346;2022-08-21T08:26:26;21.40;99.90
25410;DHT22;13339;50.840;4.346;2022-08-21T08:28:52;21.50;99.90
25410;DHT22;13339;50.840;4.346;2022-08-21T08:31:18;21.50;99.90
25410;DHT22;13339;50.840;4.346;2022-08-21T08:33:44;21.50;99.90
25410;DHT22;13339;50.840;4.346;2022-08-21T08:36:14;21.70;99.90
25410;DHT22;13339;50.840;4.346;2022-08-21T08:38:40;21.80;99.90
25410;DHT22;13339;50.840;4.346;2022-08-21T08:41:13;21.90;99.90
25410;DHT22;13339;50.840;4.346;2022-08-21T08:43:42;22.00;99.90
25410;DHT22;13339;50.840;4.346;2022-08-21T08:46:13;22.20;99.90
25410;DHT22;13339;50.840;4.346;2022-08-21T08:48:48;22.30;99.90
25410;DHT22;13339;50.840;4.346;2022-08-21T08:51:27;22.40;99.90
25410;DHT22;13339;50.840;4.346;2022-08-21T08:54:00;22.40;99.90
25410;DHT22;13339;50.840;4.346;2022-08-21T08:56:30;22.40;99.90
25410;DHT22;13339;50.840;4.346;2022-08-21T08:59:05;22.30;99.90
25410;DHT22;13339;50.840;4.346;2022-08-21T09:01:32;22.40;99.90
25410;DHT22;13339;50.840;4.346;2022-08-21T09:03:58;22.50;99.90
25410;DHT22;13339;50.840;4.346;2022-08-21T09:12:45;22.60;99.90
25410;DHT22;13339;50.840;4.346;2022-08-21T09:15:24;22.60;99.90
25410;DHT22;13339;50.840;4.346;2022-08-21T09:25:59;23.00;99.90
25410;DHT22;13339;50.840;4.346;2022-08-21T09:28:25;23.10;99.90
25410;DHT22;13339;50.840;4.346;2022-08-21T09:30:54;23.10;99.90
25410;DHT22;13339;50.840;4.346;2022-08-21T09:33:21;23.20;99.90
25410;DHT22;13339;50.840;4.346;2022-08-21T09:35:52;23.30;99.90
25410;DHT22;13339;50.840;4.346;2022-08-21T09:38:33;23.50;99.90
25410;DHT22;13339;50.840;4.346;2022-08-21T09:41:09;23.50;99.90
25410;DHT22;13339;50.840;4.346;2022-08-21T09:43:36;23.70;99.90
25410;DHT22;13339;50.840;4.346;2022-08-21T09:46:19;23.80;99.90
25410;DHT22;13339;50.840;4.346;2022-08-21T09:48:50;23.80;99.90
25410;DHT22;13339;50.840;4.346;2022-08-21T09:51:18;24.00;99.90
25410;DHT22;13339;50.840;4.346;2022-08-21T09:53:51;24.20;99.90
25410;DHT22;13339;50.840;4.346;2022-08-21T09:59:16;24.30;99.90
25410;DHT22;13339;50.840;4.346;2022-08-21T10:01:45;24.30;99.90
25410;DHT22;13339;50.840;4.346;2022-08-21T10:04:11;24.40;99.90
25410;DHT22;13339;50.840;4.346;2022-08-21T10:06:37;24.60;99.90
25410;DHT22;13339;50.840;4.346;2022-08-21T10:11:33;24.60;99.90
25410;DHT22;13339;50.840;4.346;2022-08-21T10:14:22;24.40;99.90
25410;DHT22;13339;50.840;4.346;2022-08-21T10:19:35;24.30;99.90
25410;DHT22;13339;50.840;4.346;2022-08-21T10:30:36;24.10;99.90
25410;DHT22;13339;50.840;4.346;2022-08-21T10:33:07;24.30;99.90
25410;DHT22;13339;50.840;4.346;2022-08-21T10:35:44;24.30;99.90
25410;DHT22;13339;50.840;4.346;2022-08-21T10:46:57;24.90;99.90
25410;DHT22;13339;50.840;4.346;2022-08-21T10:49:54;25.00;99.90
25410;DHT22;13339;50.840;4.346;2022-08-21T10:55:23;25.20;99.90
25410;DHT22;13339;50.840;4.346;2022-08-21T10:58:08;25.50;99.90
25410;DHT22;13339;50.840;4.346;2022-08-21T11:00:47;25.60;99.90
25410;DHT22;13339;50.840;4.346;2022-08-21T11:03:25;25.80;99.90
25410;DHT22;13339;50.840;4.346;2022-08-21T11:06:06;26.00;99.90
25410;DHT22;13339;50.840;4.346;2022-08-21T11:08:45;25.90;99.90
25410;DHT22;13339;50.840;4.346;2022-08-21T11:11:35;26.00;99.90
25410;DHT22;13339;50.840;4.346;2022-08-21T11:20:21;25.70;99.90
25410;DHT22;13339;50.840;4.346;2022-08-21T11:23:22;25.60;99.90
25410;DHT22;13339;50.840;4.346;2022-08-21T11:26:00;25.70;99.90
25410;DHT22;13339;50.840;4.346;2022-08-21T11:28:32;25.80;99.90
25410;DHT22;13339;50.840;4.346;2022-08-21T11:45:55;25.10;99.90
25410;DHT22;13339;50.840;4.346;2022-08-21T11:50:57;25.40;99.90
25410;DHT22;13339;50.840;4.346;2022-08-21T11:53:32;25.70;99.90
25410;DHT22;13339;50.840;4.346;2022-08-21T11:56:03;25.90;99.90
25410;DHT22;13339;50.840;4.346;2022-08-21T11:58:36;26.00;99.90
25410;DHT22;13339;50.840;4.346;2022-08-21T12:01:25;26.20;99.90
25410;DHT22;13339;50.840;4.346;2022-08-21T12:03:58;26.30;99.90
25410;DHT22;13339;50.840;4.346;2022-08-21T12:06:39;26.40;99.90
25410;DHT22;13339;50.840;4.346;2022-08-21T12:09:07;26.50;99.90
25410;DHT22;13339;50.840;4.346;2022-08-21T12:11:47;26.70;99.90
25410;DHT22;13339;50.840;4.346;2022-08-21T12:14:16;26.80;99.90
25410;DHT22;13339;50.840;4.346;2022-08-21T12:16:47;26.90;99.90
25410;DHT22;13339;50.840;4.346;2022-08-21T12:21:59;26.90;99.90
25410;DHT22;13339;50.840;4.346;2022-08-21T12:24:31;27.00;99.90
25410;DHT22;13339;50.840;4.346;2022-08-21T12:27:00;27.10;99.90
25410;DHT22;13339;50.840;4.346;2022-08-21T12:29:32;27.30;99.90
25410;DHT22;13339;50.840;4.346;2022-08-21T12:32:01;27.50;99.90
25410;DHT22;13339;50.840;4.346;2022-08-21T12:37:04;27.20;99.90
25410;DHT22;13339;50.840;4.346;2022-08-21T12:39:33;27.40;99.90
25410;DHT22;13339;50.840;4.346;2022-08-21T12:42:15;27.50;99.90
25410;DHT22;13339;50.840;4.346;2022-08-21T12:44:54;27.50;99.90
25410;DHT22;13339;50.840;4.346;2022-08-21T12:47:29;27.50;99.90
25410;DHT22;13339;50.840;4.346;2022-08-21T12:50:20;27.40;99.90
25410;DHT22;13339;50.840;4.346;2022-08-21T12:53:06;27.30;99.90
25410;DHT22;13339;50.840;4.346;2022-08-21T12:55:34;27.30;99.90
25410;DHT22;13339;50.840;4.346;2022-08-21T12:58:00;27.20;99.90
25410;DHT22;13339;50.840;4.346;2022-08-21T13:00:28;27.20;99.90
25410;DHT22;13339;50.840;4.346;2022-08-21T13:02:55;27.00;99.90
25410;DHT22;13339;50.840;4.346;2022-08-21T13:05:41;26.90;99.90
25410;DHT22;13339;50.840;4.346;2022-08-21T13:08:10;27.00;99.90
25410;DHT22;13339;50.840;4.346;2022-08-21T13:10:36;27.10;99.90
25410;DHT22;13339;50.840;4.346;2022-08-21T13:13:09;27.10;99.90
25410;DHT22;13339;50.840;4.346;2022-08-21T13:15:39;27.10;99.90
25410;DHT22;13339;50.840;4.346;2022-08-21T13:18:06;27.20;99.90
25410;DHT22;13339;50.840;4.346;2022-08-21T13:20:41;27.20;99.90
25410;DHT22;13339;50.840;4.346;2022-08-21T13:23:23;27.20;99.90
25410;DHT22;13339;50.840;4.346;2022-08-21T13:25:50;27.30;99.90
25410;DHT22;13339;50.840;4.346;2022-08-21T13:28:15;27.20;99.90
25410;DHT22;13339;50.840;4.346;2022-08-21T13:30:44;27.10;99.90
25410;DHT22;13339;50.840;4.346;2022-08-21T13:33:13;27.10;99.90
25410;DHT22;13339;50.840;4.346;2022-08-21T13:35:57;27.10;99.90
25410;DHT22;13339;50.840;4.346;2022-08-21T13:38:32;26.80;99.90
25410;DHT22;13339;50.840;4.346;2022-08-21T13:41:11;26.30;99.90
25410;DHT22;13339;50.840;4.346;2022-08-21T13:43:38;26.20;99.90
25410;DHT22;13339;50.840;4.346;2022-08-21T13:46:11;26.20;99.90
25410;DHT22;13339;50.840;4.346;2022-08-21T13:48:38;26.30;99.90
25410;DHT22;13339;50.840;4.346;2022-08-21T13:51:04;26.40;99.90
25410;DHT22;13339;50.840;4.346;2022-08-21T13:53:33;26.30;99.90
25410;DHT22;13339;50.840;4.346;2022-08-21T13:56:00;26.20;99.90
25410;DHT22;13339;50.840;4.346;2022-08-21T13:58:42;26.30;99.90
25410;DHT22;13339;50.840;4.346;2022-08-21T14:03:45;26.40;99.90
25410;DHT22;13339;50.840;4.346;2022-08-21T14:06:22;26.40;99.90
25410;DHT22;13339;50.840;4.346;2022-08-21T14:08:51;26.20;99.90
25410;DHT22;13339;50.840;4.346;2022-08-21T14:11:18;26.20;99.90
25410;DHT22;13339;50.840;4.346;2022-08-21T14:16:23;26.10;99.90
25410;DHT22;13339;50.840;4.346;2022-08-21T14:19:17;26.10;99.90
25410;DHT22;13339;50.840;4.346;2022-08-21T14:21:44;26.20;99.90
25410;DHT22;13339;50.840;4.346;2022-08-21T14:27:04;26.30;99.90
25410;DHT22;13339;50.840;4.346;2022-08-21T14:29:40;26.40;99.90
25410;DHT22;13339;50.840;4.346;2022-08-21T14:32:13;26.40;99.90
25410;DHT22;13339;50.840;4.346;2022-08-21T14:34:39;26.50;99.90
25410;DHT22;13339;50.840;4.346;2022-08-21T14:37:05;26.40;99.90
25410;DHT22;13339;50.840;4.346;2022-08-21T14:39:31;26.30;99.90
25410;DHT22;13339;50.840;4.346;2022-08-21T14:41:57;26.10;99.90
25410;DHT22;13339;50.840;4.346;2022-08-21T14:44:23;26.20;99.90
25410;DHT22;13339;50.840;4.346;2022-08-21T14:46:49;26.30;99.90
25410;DHT22;13339;50.840;4.346;2022-08-21T14:49:14;26.50;99.90
25410;DHT22;13339;50.840;4.346;2022-08-21T14:51:40;26.60;99.90
25410;DHT22;13339;50.840;4.346;2022-08-21T14:54:06;26.70;99.90
25410;DHT22;13339;50.840;4.346;2022-08-21T14:56:33;26.80;99.90
25410;DHT22;13339;50.840;4.346;2022-08-21T14:59:04;26.90;99.90
25410;DHT22;13339;50.840;4.346;2022-08-21T15:01:33;26.90;99.90
25410;DHT22;13339;50.840;4.346;2022-08-21T15:03:59;26.90;99.90
25410;DHT22;13339;50.840;4.346;2022-08-21T15:06:25;26.80;99.90
25410;DHT22;13339;50.840;4.346;2022-08-21T15:08:50;27.00;99.90
25410;DHT22;13339;50.840;4.346;2022-08-21T15:11:19;27.00;99.90
25410;DHT22;13339;50.840;4.346;2022-08-21T15:13:46;27.00;99.90
25410;DHT22;13339;50.840;4.346;2022-08-21T15:16:13;27.00;99.90
25410;DHT22;13339;50.840;4.346;2022-08-21T15:18:39;27.00;99.90
25410;DHT22;13339;50.840;4.346;2022-08-21T15:21:05;27.00;99.90
25410;DHT22;13339;50.840;4.346;2022-08-21T15:23:31;26.90;99.90
25410;DHT22;13339;50.840;4.346;2022-08-21T15:25:56;26.80;99.90
25410;DHT22;13339;50.840;4.346;2022-08-21T15:28:23;26.90;99.90
25410;DHT22;13339;50.840;4.346;2022-08-21T15:30:50;26.80;99.90
25410;DHT22;13339;50.840;4.346;2022-08-21T15:33:16;26.90;99.90
25410;DHT22;13339;50.840;4.346;2022-08-21T15:35:42;27.00;99.90
25410;DHT22;13339;50.840;4.346;2022-08-21T15:38:08;27.00;99.90
25410;DHT22;13339;50.840;4.346;2022-08-21T15:40:35;27.00;99.90
25410;DHT22;13339;50.840;4.346;2022-08-21T15:43:02;26.90;99.90
25410;DHT22;13339;50.840;4.346;2022-08-21T15:45:29;26.90;99.90
25410;DHT22;13339;50.840;4.346;2022-08-21T15:47:55;26.90;99.90
25410;DHT22;13339;50.840;4.346;2022-08-21T15:50:22;26.80;99.90
25410;DHT22;13339;50.840;4.346;2022-08-21T15:52:48;26.80;99.90
25410;DHT22;13339;50.840;4.346;2022-08-21T15:55:14;26.90;99.90
25410;DHT22;13339;50.840;4.346;2022-08-21T15:57:45;26.90;99.90
25410;DHT22;13339;50.840;4.346;2022-08-21T16:00:18;27.00;99.90
25410;DHT22;13339;50.840;4.346;2022-08-21T16:02:47;26.90;99.90
25410;DHT22;13339;50.840;4.346;2022-08-21T16:05:15;26.90;99.90
25410;DHT22;13339;50.840;4.346;2022-08-21T16:07:45;26.90;99.90
25410;DHT22;13339;50.840;4.346;2022-08-21T16:10:12;26.80;99.90
25410;DHT22;13339;50.840;4.346;2022-08-21T16:12:42;26.80;99.90
25410;DHT22;13339;50.840;4.346;2022-08-21T16:15:11;26.70;99.90
25410;DHT22;13339;50.840;4.346;2022-08-21T16:17:38;26.50;99.90
25410;DHT22;13339;50.840;4.346;2022-08-21T16:20:09;26.60;99.90
25410;DHT22;13339;50.840;4.346;2022-08-21T16:22:36;26.60;99.90
25410;DHT22;13339;50.840;4.346;2022-08-21T16:25:05;26.60;99.90
25410;DHT22;13339;50.840;4.346;2022-08-21T16:27:31;26.60;99.90
25410;DHT22;13339;50.840;4.346;2022-08-21T16:29:57;26.60;99.90
25410;DHT22;13339;50.840;4.346;2022-08-21T16:32:23;26.60;99.90
25410;DHT22;13339;50.840;4.346;2022-08-21T16:34:49;26.50;99.90
25410;DHT22;13339;50.840;4.346;2022-08-21T16:37:16;26.50;99.90
25410;DHT22;13339;50.840;4.346;2022-08-21T16:39:42;26.40;99.90
25410;DHT22;13339;50.840;4.346;2022-08-21T16:42:12;26.40;99.90
25410;DHT22;13339;50.840;4.346;2022-08-21T16:44:38;26.40;99.90
25410;DHT22;13339;50.840;4.346;2022-08-21T16:47:03;26.50;99.90
25410;DHT22;13339;50.840;4.346;2022-08-21T16:49:29;26.40;99.90
25410;DHT22;13339;50.840;4.346;2022-08-21T16:51:56;26.40;99.90
25410;DHT22;13339;50.840;4.346;2022-08-21T16:54:22;26.40;99.90
25410;DHT22;13339;50.840;4.346;2022-08-21T16:56:48;26.40;99.90
25410;DHT22;13339;50.840;4.346;2022-08-21T16:59:14;26.30;99.90
25410;DHT22;13339;50.840;4.346;2022-08-21T17:01:40;26.20;99.90